sensor_id;sensor_type;location;lat;lon;timestamp;pressure;altitude;pressure_sealevel;temperature;humidity
33191;BME280;19554;42.652;23.364;2022-10-23T00:01:20;95107.47;;;13.26;59.35
33191;BME280;19554;42.652;23.364;2022-10-23T00:03:53;95125.59;;;13.34;59.01
33191;BME280;19554;42.652;23.364;2022-10-23T00:06:19;95096.66;;;13.12;59.35
33191;BME280;19554;42.652;23.364;2022-10-23T00:08:46;95117.03;;;13.32;59.33
33191;BME280;19554;42.652;23.364;2022-10-23T00:11:16;95100.94;;;13.13;59.54
33191;BME280;19554;42.652;23.364;2022-10-23T00:13:42;95117.03;;;13.32;59.61
33191;BME280;19554;42.652;23.364;2022-10-23T00:16:08;95097.28;;;13.23;58.89
33191;BME280;19554;42.652;23.364;2022-10-23T00:18:34;95119.44;;;13.34;59.39
33191;BME280;19554;42.652;23.364;2022-10-23T00:21:01;95114.28;;;13.37;59.04
33191;BME280;19554;42.652;23.364;2022-10-23T00:23:26;95113.34;;;13.28;58.81
33191;BME280;19554;42.652;23.364;2022-10-23T00:25:52;95028.19;;;12.87;58.65
33191;BME280;19554;42.652;23.364;2022-10-23T00:28:17;95085.78;;;13.41;58.61
33191;BME280;19554;42.652;23.364;2022-10-23T00:30:43;95093.84;;;13.41;58.65
33191;BME280;19554;42.652;23.364;2022-10-23T00:33:09;95107.25;;;13.41;58.46
33191;BME280;19554;42.652;23.364;2022-10-23T00:35:38;95034.47;;;12.96;58.52
33191;BME280;19554;42.652;23.364;2022-10-23T00:38:05;95019.72;;;12.80;58.58
33191;BME280;19554;42.652;23.364;2022-10-23T00:40:30;95106.88;;;13.29;59.00
33191;BME280;19554;42.652;23.364;2022-10-23T00:42:56;95118.41;;;13.30;58.91
33191;BME280;19554;42.652;23.364;2022-10-23T00:45:24;95090.94;;;13.19;58.75
33191;BME280;19554;42.652;23.364;2022-10-23T00:47:51;95079.41;;;13.18;58.73
33191;BME280;19554;42.652;23.364;2022-10-23T00:50:17;95095.59;;;13.32;58.75
33191;BME280;19554;42.652;23.364;2022-10-23T00:52:48;95100.38;;;13.35;58.72
33191;BME280;19554;42.652;23.364;2022-10-23T00:55:15;95095.78;;;13.36;58.32
33191;BME280;19554;42.652;23.364;2022-10-23T00:57:42;95101.16;;;13.36;58.62
33191;BME280;19554;42.652;23.364;2022-10-23T01:00:13;95082.84;;;13.24;58.47
33191;BME280;19554;42.652;23.364;2022-10-23T01:02:39;95036.38;;;12.77;59.37
33191;BME280;19554;42.652;23.364;2022-10-23T01:05:05;95049.56;;;12.92;59.30
33191;BME280;19554;42.652;23.364;2022-10-23T01:13:05;95127.03;;;11.63;65.05
33191;BME280;19554;42.652;23.364;2022-10-23T01:15:52;95107.69;;;11.77;64.71
33191;BME280;19554;42.652;23.364;2022-10-23T01:18:55;95138.78;;;11.68;65.25
33191;BME280;19554;42.652;23.364;2022-10-23T01:21:30;95158.28;;;10.95;68.24
33191;BME280;19554;42.652;23.364;2022-10-23T01:24:19;95147.03;;;10.43;69.95
33191;BME280;19554;42.652;23.364;2022-10-23T01:26:57;95164.09;;;10.47;69.99
33191;BME280;19554;42.652;23.364;2022-10-23T01:29:28;95163.53;;;10.55;70.09
33191;BME280;19554;42.652;23.364;2022-10-23T01:32:12;95087.31;;;10.18;69.43
33191;BME280;19554;42.652;23.364;2022-10-23T01:34:53;95155.91;;;10.88;68.33
33191;BME280;19554;42.652;23.364;2022-10-23T01:37:36;95152.69;;;10.91;67.60
33191;BME280;19554;42.652;23.364;2022-10-23T01:40:07;95181.91;;;11.22;67.01
33191;BME280;19554;42.652;23.364;2022-10-23T01:42:43;95204.09;;;11.56;66.06
33191;BME280;19554;42.652;23.364;2022-10-23T01:45:32;95153.94;;;11.43;65.32
33191;BME280;19554;42.652;23.364;2022-10-23T01:48:02;95186.75;;;11.88;64.76
33191;BME280;19554;42.652;23.364;2022-10-23T01:50:29;95196.81;;;12.01;64.55
33191;BME280;19554;42.652;23.364;2022-10-23T01:52:55;95194.91;;;12.07;64.34
33191;BME280;19554;42.652;23.364;2022-10-23T01:55:22;95108.91;;;11.60;63.83
33191;BME280;19554;42.652;23.364;2022-10-23T01:57:49;95145.41;;;12.04;63.43
33191;BME280;19554;42.652;23.364;2022-10-23T02:00:18;95161.75;;;12.27;63.25
33191;BME280;19554;42.652;23.364;2022-10-23T02:02:45;95166.56;;;12.30;62.93
33191;BME280;19554;42.652;23.364;2022-10-23T02:05:26;95113.47;;;11.89;62.85
33191;BME280;19554;42.652;23.364;2022-10-23T02:07:53;95126.13;;;12.07;62.58
33191;BME280;19554;42.652;23.364;2022-10-23T02:10:20;95180.81;;;12.49;62.21
33191;BME280;19554;42.652;23.364;2022-10-23T02:13:04;95187.97;;;12.54;61.67
33191;BME280;19554;42.652;23.364;2022-10-23T02:21:07;95183.88;;;12.62;61.55
33191;BME280;19554;42.652;23.364;2022-10-23T02:23:40;95185.97;;;12.65;61.42
33191;BME280;19554;42.652;23.364;2022-10-23T02:26:20;95188.06;;;12.68;61.43
33191;BME280;19554;42.652;23.364;2022-10-23T02:28:54;95190.72;;;12.73;61.31
33191;BME280;19554;42.652;23.364;2022-10-23T02:31:22;95192.94;;;12.66;61.36
33191;BME280;19554;42.652;23.364;2022-10-23T02:33:48;95189.75;;;12.64;61.64
33191;BME280;19554;42.652;23.364;2022-10-23T02:36:14;95168.50;;;12.48;61.72
33191;BME280;19554;42.652;23.364;2022-10-23T02:38:42;95191.91;;;12.62;61.92
33191;BME280;19554;42.652;23.364;2022-10-23T02:55:26;95198.53;;;12.88;61.34
33191;BME280;19554;42.652;23.364;2022-10-23T02:57:37;95182.25;;;12.85;60.94
33191;BME280;19554;42.652;23.364;2022-10-23T03:00:06;95190.91;;;13.00;60.86
33191;BME280;19554;42.652;23.364;2022-10-23T03:02:38;95178.50;;;13.04;60.71
33191;BME280;19554;42.652;23.364;2022-10-23T03:05:08;95130.78;;;12.69;60.51
33191;BME280;19554;42.652;23.364;2022-10-23T03:07:34;95193.50;;;13.05;60.35
33191;BME280;19554;42.652;23.364;2022-10-23T03:10:00;95207.63;;;13.11;60.31
33191;BME280;19554;42.652;23.364;2022-10-23T03:12:26;95212.22;;;13.11;60.39
33191;BME280;19554;42.652;23.364;2022-10-23T03:14:51;95209.00;;;13.09;60.17
33191;BME280;19554;42.652;23.364;2022-10-23T03:17:16;95186.25;;;12.87;60.27
33191;BME280;19554;42.652;23.364;2022-10-23T03:19:42;95214.38;;;13.09;60.21
33191;BME280;19554;42.652;23.364;2022-10-23T03:22:07;95211.75;;;13.03;60.38
33191;BME280;19554;42.652;23.364;2022-10-23T03:24:32;95222.94;;;13.11;60.55
33191;BME280;19554;42.652;23.364;2022-10-23T03:26:58;95226.91;;;13.13;60.38
33191;BME280;19554;42.652;23.364;2022-10-23T03:29:23;95225.03;;;13.14;60.35
33191;BME280;19554;42.652;23.364;2022-10-23T03:31:49;95237.56;;;13.18;60.26
33191;BME280;19554;42.652;23.364;2022-10-23T03:34:14;95238.88;;;13.21;60.08
33191;BME280;19554;42.652;23.364;2022-10-23T03:36:40;95235.69;;;13.19;59.97
33191;BME280;19554;42.652;23.364;2022-10-23T03:39:05;95229.56;;;12.94;60.51
33191;BME280;19554;42.652;23.364;2022-10-23T03:41:31;95223.44;;;12.89;60.65
33191;BME280;19554;42.652;23.364;2022-10-23T03:43:56;95234.56;;;13.01;60.58
33191;BME280;19554;42.652;23.364;2022-10-23T03:46:22;95234.00;;;13.04;60.64
33191;BME280;19554;42.652;23.364;2022-10-23T03:48:47;95232.63;;;13.07;60.42
33191;BME280;19554;42.652;23.364;2022-10-23T03:51:13;95220.06;;;13.02;60.22
33191;BME280;19554;42.652;23.364;2022-10-23T03:53:38;95239.50;;;13.13;59.93
33191;BME280;19554;42.652;23.364;2022-10-23T03:56:04;95240.53;;;13.17;59.72
33191;BME280;19554;42.652;23.364;2022-10-23T03:58:29;95237.28;;;13.20;59.72
33191;BME280;19554;42.652;23.364;2022-10-23T04:00:56;95237.88;;;13.17;59.08
33191;BME280;19554;42.652;23.364;2022-10-23T04:03:21;95239.50;;;13.13;59.08
33191;BME280;19554;42.652;23.364;2022-10-23T04:05:47;95249.06;;;13.24;58.56
33191;BME280;19554;42.652;23.364;2022-10-23T04:08:12;95235.00;;;13.08;58.77
33191;BME280;19554;42.652;23.364;2022-10-23T04:10:37;95239.44;;;13.18;58.67
33191;BME280;19554;42.652;23.364;2022-10-23T04:13:03;95240.25;;;13.18;58.62
33191;BME280;19554;42.652;23.364;2022-10-23T04:15:28;95215.53;;;13.02;58.49
33191;BME280;19554;42.652;23.364;2022-10-23T04:17:53;95239.97;;;13.20;58.52
33191;BME280;19554;42.652;23.364;2022-10-23T04:20:19;95246.41;;;13.19;58.15
33191;BME280;19554;42.652;23.364;2022-10-23T04:22:44;95229.38;;;13.10;57.56
33191;BME280;19554;42.652;23.364;2022-10-23T04:25:10;95245.03;;;13.21;57.07
33191;BME280;19554;42.652;23.364;2022-10-23T04:27:35;95231.75;;;13.11;56.25
33191;BME280;19554;42.652;23.364;2022-10-23T04:30:01;95257.03;;;13.29;55.86
33191;BME280;19554;42.652;23.364;2022-10-23T04:32:28;95249.28;;;13.27;55.82
33191;BME280;19554;42.652;23.364;2022-10-23T04:34:53;95235.34;;;13.25;55.56
33191;BME280;19554;42.652;23.364;2022-10-23T04:37:18;95249.94;;;13.38;54.80
33191;BME280;19554;42.652;23.364;2022-10-23T04:39:44;95252.78;;;13.47;54.65
33191;BME280;19554;42.652;23.364;2022-10-23T04:42:09;95250.59;;;13.49;54.17
33191;BME280;19554;42.652;23.364;2022-10-23T04:44:35;95234.06;;;13.42;53.82
33191;BME280;19554;42.652;23.364;2022-10-23T04:47:00;95260.91;;;13.61;53.64
33191;BME280;19554;42.652;23.364;2022-10-23T04:49:25;95253.84;;;13.65;53.78
33191;BME280;19554;42.652;23.364;2022-10-23T04:51:51;95252.69;;;13.71;53.44
33191;BME280;19554;42.652;23.364;2022-10-23T04:54:16;95249.94;;;13.76;52.99
33191;BME280;19554;42.652;23.364;2022-10-23T04:56:42;95252.09;;;13.74;53.17
33191;BME280;19554;42.652;23.364;2022-10-23T04:59:08;95255.97;;;13.68;52.99
33191;BME280;19554;42.652;23.364;2022-10-23T05:01:33;95261.38;;;13.63;53.70
33191;BME280;19554;42.652;23.364;2022-10-23T05:03:59;95255.00;;;13.59;53.95
33191;BME280;19554;42.652;23.364;2022-10-23T05:06:24;95274.16;;;13.71;53.70
33191;BME280;19554;42.652;23.364;2022-10-23T05:08:49;95254.88;;;13.69;53.58
33191;BME280;19554;42.652;23.364;2022-10-23T05:11:15;95241.38;;;13.74;53.53
33191;BME280;19554;42.652;23.364;2022-10-23T05:13:40;95262.28;;;14.10;53.40
33191;BME280;19554;42.652;23.364;2022-10-23T05:16:06;95273.88;;;14.24;52.98
33191;BME280;19554;42.652;23.364;2022-10-23T05:18:41;95276.91;;;14.36;52.62
33191;BME280;19554;42.652;23.364;2022-10-23T05:21:20;95223.84;;;14.28;52.65
33191;BME280;19554;42.652;23.364;2022-10-23T05:23:46;95263.34;;;14.74;51.77
33191;BME280;19554;42.652;23.364;2022-10-23T05:26:12;95255.59;;;14.86;50.96
33191;BME280;19554;42.652;23.364;2022-10-23T05:28:38;95260.16;;;15.00;50.58
33191;BME280;19554;42.652;23.364;2022-10-23T05:31:04;95259.97;;;15.10;49.73
33191;BME280;19554;42.652;23.364;2022-10-23T05:33:30;95260.34;;;15.17;49.43
33191;BME280;19554;42.652;23.364;2022-10-23T05:35:56;95270.91;;;15.27;49.47
33191;BME280;19554;42.652;23.364;2022-10-23T05:38:23;95274.50;;;15.36;49.15
33191;BME280;19554;42.652;23.364;2022-10-23T05:40:50;95274.88;;;15.44;48.98
33191;BME280;19554;42.652;23.364;2022-10-23T05:43:16;95292.69;;;15.53;48.60
33191;BME280;19554;42.652;23.364;2022-10-23T05:45:41;95305.75;;;15.60;48.61
33191;BME280;19554;42.652;23.364;2022-10-23T05:48:07;95288.72;;;15.37;48.72
33191;BME280;19554;42.652;23.364;2022-10-23T05:50:35;95309.97;;;15.38;49.24
33191;BME280;19554;42.652;23.364;2022-10-23T05:53:01;95315.63;;;15.23;50.19
33191;BME280;19554;42.652;23.364;2022-10-23T05:55:26;95313.66;;;15.15;50.77
33191;BME280;19554;42.652;23.364;2022-10-23T05:57:51;95325.28;;;15.10;51.00
33191;BME280;19554;42.652;23.364;2022-10-23T06:00:17;95333.94;;;15.07;51.13
33191;BME280;19554;42.652;23.364;2022-10-23T06:02:43;95333.03;;;14.71;51.77
33191;BME280;19554;42.652;23.364;2022-10-23T06:05:08;95331.38;;;14.56;52.51
33191;BME280;19554;42.652;23.364;2022-10-23T06:07:34;95340.53;;;14.55;52.82
33191;BME280;19554;42.652;23.364;2022-10-23T06:09:59;95343.16;;;14.60;52.84
33191;BME280;19554;42.652;23.364;2022-10-23T06:12:25;95344.44;;;14.62;52.97
33191;BME280;19554;42.652;23.364;2022-10-23T06:14:50;95348.13;;;14.66;53.36
33191;BME280;19554;42.652;23.364;2022-10-23T06:17:15;95318.38;;;14.44;53.01
33191;BME280;19554;42.652;23.364;2022-10-23T06:19:43;95359.09;;;14.70;53.37
33191;BME280;19554;42.652;23.364;2022-10-23T06:22:09;95334.56;;;14.58;53.56
33191;BME280;19554;42.652;23.364;2022-10-23T06:24:34;95349.16;;;14.71;54.18
33191;BME280;19554;42.652;23.364;2022-10-23T06:27:00;95349.56;;;14.78;54.60
33191;BME280;19554;42.652;23.364;2022-10-23T06:29:25;95352.94;;;14.83;54.93
33191;BME280;19554;42.652;23.364;2022-10-23T06:31:50;95349.16;;;14.84;56.02
33191;BME280;19554;42.652;23.364;2022-10-23T06:34:16;95349.84;;;14.90;57.12
33191;BME280;19554;42.652;23.364;2022-10-23T06:36:41;95330.34;;;14.84;58.37
33191;BME280;19554;42.652;23.364;2022-10-23T06:39:07;95279.66;;;14.64;59.95
33191;BME280;19554;42.652;23.364;2022-10-23T06:41:34;95351.69;;;15.50;60.63
33191;BME280;19554;42.652;23.364;2022-10-23T06:43:59;95355.72;;;16.02;60.50
33191;BME280;19554;42.652;23.364;2022-10-23T06:46:25;95356.38;;;16.44;59.36
33191;BME280;19554;42.652;23.364;2022-10-23T06:48:52;95300.47;;;16.50;58.35
33191;BME280;19554;42.652;23.364;2022-10-23T06:51:18;95351.88;;;17.07;57.64
33191;BME280;19554;42.652;23.364;2022-10-23T06:53:43;95349.25;;;17.24;57.00
33191;BME280;19554;42.652;23.364;2022-10-23T06:56:09;95349.66;;;17.40;56.34
33191;BME280;19554;42.652;23.364;2022-10-23T06:58:37;95361.41;;;17.53;55.92
33191;BME280;19554;42.652;23.364;2022-10-23T07:01:05;95365.16;;;17.74;55.46
33191;BME280;19554;42.652;23.364;2022-10-23T07:03:31;95352.19;;;17.85;54.94
33191;BME280;19554;42.652;23.364;2022-10-23T07:06:03;95339.78;;;17.93;54.87
33191;BME280;19554;42.652;23.364;2022-10-23T07:08:28;95349.34;;;18.16;54.28
33191;BME280;19554;42.652;23.364;2022-10-23T07:10:54;95342.69;;;18.22;53.55
33191;BME280;19554;42.652;23.364;2022-10-23T07:13:19;95338.22;;;18.18;53.65
33191;BME280;19554;42.652;23.364;2022-10-23T07:15:44;95340.59;;;18.28;53.57
33191;BME280;19554;42.652;23.364;2022-10-23T07:18:10;95332.81;;;18.44;52.68
33191;BME280;19554;42.652;23.364;2022-10-23T07:20:42;95336.44;;;18.65;52.25
33191;BME280;19554;42.652;23.364;2022-10-23T07:23:08;95352.19;;;18.81;51.79
33191;BME280;19554;42.652;23.364;2022-10-23T07:25:35;95348.19;;;18.96;51.44
33191;BME280;19554;42.652;23.364;2022-10-23T07:28:00;95355.16;;;19.05;50.99
33191;BME280;19554;42.652;23.364;2022-10-23T07:30:26;95293.34;;;18.78;50.74
33191;BME280;19554;42.652;23.364;2022-10-23T07:32:51;95328.56;;;19.07;50.24
33191;BME280;19554;42.652;23.364;2022-10-23T07:35:17;95357.44;;;19.33;50.05
33191;BME280;19554;42.652;23.364;2022-10-23T07:37:42;95362.16;;;19.45;49.51
33191;BME280;19554;42.652;23.364;2022-10-23T07:40:08;95279.28;;;18.93;49.31
33191;BME280;19554;42.652;23.364;2022-10-23T07:42:34;95367.44;;;19.41;49.28
33191;BME280;19554;42.652;23.364;2022-10-23T07:45:00;95335.88;;;19.15;49.32
33191;BME280;19554;42.652;23.364;2022-10-23T07:47:25;95310.75;;;19.06;49.19
33191;BME280;19554;42.652;23.364;2022-10-23T07:49:50;95362.50;;;19.43;48.92
33191;BME280;19554;42.652;23.364;2022-10-23T07:52:16;95362.13;;;19.53;48.64
33191;BME280;19554;42.652;23.364;2022-10-23T07:54:41;95372.28;;;19.74;48.01
33191;BME280;19554;42.652;23.364;2022-10-23T07:57:09;95322.84;;;19.77;47.27
33191;BME280;19554;42.652;23.364;2022-10-23T07:59:36;95355.44;;;19.89;46.84
33191;BME280;19554;42.652;23.364;2022-10-23T08:02:02;95346.38;;;19.85;47.00
33191;BME280;19554;42.652;23.364;2022-10-23T08:04:27;95326.25;;;19.65;46.97
33191;BME280;19554;42.652;23.364;2022-10-23T08:06:52;95349.19;;;19.97;46.68
33191;BME280;19554;42.652;23.364;2022-10-23T08:09:20;95320.47;;;19.96;46.30
33191;BME280;19554;42.652;23.364;2022-10-23T08:11:45;95353.03;;;20.38;45.50
33191;BME280;19554;42.652;23.364;2022-10-23T08:14:11;95352.16;;;20.46;45.30
33191;BME280;19554;42.652;23.364;2022-10-23T08:16:37;95315.66;;;20.23;45.13
33191;BME280;19554;42.652;23.364;2022-10-23T08:19:05;95354.41;;;20.44;45.20
33191;BME280;19554;42.652;23.364;2022-10-23T08:21:31;95362.53;;;20.44;45.07
33191;BME280;19554;42.652;23.364;2022-10-23T08:23:58;95362.28;;;20.37;45.65
33191;BME280;19554;42.652;23.364;2022-10-23T08:26:24;95349.19;;;20.39;45.64
33191;BME280;19554;42.652;23.364;2022-10-23T08:28:51;95285.19;;;19.84;45.68
33191;BME280;19554;42.652;23.364;2022-10-23T08:31:18;95354.34;;;20.32;46.03
33191;BME280;19554;42.652;23.364;2022-10-23T08:33:44;95354.34;;;20.32;45.78
33191;BME280;19554;42.652;23.364;2022-10-23T08:36:18;95356.72;;;20.33;45.39
33191;BME280;19554;42.652;23.364;2022-10-23T08:38:44;95341.25;;;20.34;45.19
33191;BME280;19554;42.652;23.364;2022-10-23T08:41:23;95350.50;;;20.33;45.51
33191;BME280;19554;42.652;23.364;2022-10-23T08:44:25;95355.81;;;20.50;45.29
33191;BME280;19554;42.652;23.364;2022-10-23T08:47:09;95356.84;;;20.58;45.23
33191;BME280;19554;42.652;23.364;2022-10-23T08:50:13;95348.66;;;20.67;45.17
33191;BME280;19554;42.652;23.364;2022-10-23T08:55:25;95342.44;;;20.45;46.45
33191;BME280;19554;42.652;23.364;2022-10-23T08:58:05;95338.34;;;20.39;46.53
33191;BME280;19554;42.652;23.364;2022-10-23T09:00:32;95353.81;;;20.39;46.67
33191;BME280;19554;42.652;23.364;2022-10-23T09:03:00;95355.00;;;20.29;46.43
33191;BME280;19554;42.652;23.364;2022-10-23T09:05:41;95352.25;;;20.38;47.04
33191;BME280;19554;42.652;23.364;2022-10-23T09:13:53;95345.88;;;20.54;46.52
33191;BME280;19554;42.652;23.364;2022-10-23T09:19:11;95341.94;;;20.52;46.57
33191;BME280;19554;42.652;23.364;2022-10-23T09:21:38;95340.03;;;20.52;46.24
33191;BME280;19554;42.652;23.364;2022-10-23T09:24:04;95350.09;;;20.64;45.99
33191;BME280;19554;42.652;23.364;2022-10-23T09:26:29;95345.81;;;20.63;45.81
33191;BME280;19554;42.652;23.364;2022-10-23T09:29:06;95309.78;;;20.42;45.72
33191;BME280;19554;42.652;23.364;2022-10-23T09:31:50;95275.25;;;20.30;45.51
33191;BME280;19554;42.652;23.364;2022-10-23T09:34:21;95329.47;;;20.72;45.34
33191;BME280;19554;42.652;23.364;2022-10-23T09:36:55;95328.81;;;20.87;45.31
33191;BME280;19554;42.652;23.364;2022-10-23T09:39:28;95326.78;;;20.84;45.13
33191;BME280;19554;42.652;23.364;2022-10-23T09:41:55;95315.56;;;20.73;45.29
33191;BME280;19554;42.652;23.364;2022-10-23T09:44:22;95327.56;;;20.72;45.30
33191;BME280;19554;42.652;23.364;2022-10-23T09:46:51;95331.06;;;20.73;45.06
33191;BME280;19554;42.652;23.364;2022-10-23T09:49:28;95327.09;;;20.70;45.16
33191;BME280;19554;42.652;23.364;2022-10-23T09:54:28;95317.50;;;20.85;44.43
33191;BME280;19554;42.652;23.364;2022-10-23T09:56:58;95333.91;;;20.89;44.18
33191;BME280;19554;42.652;23.364;2022-10-23T09:59:28;95334.91;;;20.72;43.96
33191;BME280;19554;42.652;23.364;2022-10-23T10:02:01;95328.88;;;20.66;43.82
33191;BME280;19554;42.652;23.364;2022-10-23T10:04:31;95325.13;;;20.58;43.96
33191;BME280;19554;42.652;23.364;2022-10-23T10:06:57;95328.53;;;20.68;44.06
33191;BME280;19554;42.652;23.364;2022-10-23T10:09:23;95319.94;;;20.66;43.49
33191;BME280;19554;42.652;23.364;2022-10-23T10:11:53;95319.47;;;20.64;43.62
33191;BME280;19554;42.652;23.364;2022-10-23T10:25:36;95190.16;;;19.89;42.81
33191;BME280;19554;42.652;23.364;2022-10-23T10:30:38;95312.63;;;20.78;43.05
33191;BME280;19554;42.652;23.364;2022-10-23T10:33:21;95300.97;;;20.78;40.28
33191;BME280;19554;42.652;23.364;2022-10-23T10:46:58;95221.75;;;20.39;40.53
33191;BME280;19554;42.652;23.364;2022-10-23T10:49:48;95283.91;;;20.77;40.27
33191;BME280;19554;42.652;23.364;2022-10-23T10:52:24;95241.38;;;20.57;40.21
33191;BME280;19554;42.652;23.364;2022-10-23T10:57:41;95290.44;;;20.64;39.73
33191;BME280;19554;42.652;23.364;2022-10-23T11:00:17;95291.19;;;20.52;39.97
33191;BME280;19554;42.652;23.364;2022-10-23T11:02:49;95286.59;;;20.44;40.67
33191;BME280;19554;42.652;23.364;2022-10-23T11:05:33;95290.56;;;20.47;40.27
33191;BME280;19554;42.652;23.364;2022-10-23T11:08:15;95290.72;;;20.50;40.14
33191;BME280;19554;42.652;23.364;2022-10-23T11:10:48;95239.09;;;20.26;40.31
33191;BME280;19554;42.652;23.364;2022-10-23T11:13:34;95272.66;;;20.54;40.67
33191;BME280;19554;42.652;23.364;2022-10-23T11:16:10;95265.84;;;20.48;40.77
33191;BME280;19554;42.652;23.364;2022-10-23T11:18:40;95251.56;;;20.39;40.16
33191;BME280;19554;42.652;23.364;2022-10-23T11:26:54;95254.06;;;20.44;40.11
33191;BME280;19554;42.652;23.364;2022-10-23T11:32:06;95253.25;;;20.65;40.03
33191;BME280;19554;42.652;23.364;2022-10-23T11:37:31;95187.59;;;20.26;40.99
33191;BME280;19554;42.652;23.364;2022-10-23T11:45:25;95225.69;;;20.63;40.82
33191;BME280;19554;42.652;23.364;2022-10-23T11:48:02;95207.53;;;20.42;41.51
33191;BME280;19554;42.652;23.364;2022-10-23T11:50:36;95231.69;;;20.47;41.40
33191;BME280;19554;42.652;23.364;2022-10-23T11:58:43;95221.53;;;20.44;41.61
33191;BME280;19554;42.652;23.364;2022-10-23T12:06:26;95188.69;;;20.12;41.55
33191;BME280;19554;42.652;23.364;2022-10-23T12:08:55;95202.66;;;20.35;41.29
33191;BME280;19554;42.652;23.364;2022-10-23T12:11:38;95212.28;;;20.45;40.74
33191;BME280;19554;42.652;23.364;2022-10-23T12:14:24;95191.69;;;20.32;40.57
33191;BME280;19554;42.652;23.364;2022-10-23T12:16:49;95142.59;;;20.00;40.69
33191;BME280;19554;42.652;23.364;2022-10-23T12:19:20;95226.28;;;20.47;41.02
33191;BME280;19554;42.652;23.364;2022-10-23T12:22:07;95198.00;;;20.36;40.79
33191;BME280;19554;42.652;23.364;2022-10-23T12:24:48;95206.63;;;20.38;40.53
33191;BME280;19554;42.652;23.364;2022-10-23T12:27:21;95210.91;;;20.39;40.65
33191;BME280;19554;42.652;23.364;2022-10-23T12:30:18;95214.69;;;20.26;40.43
33191;BME280;19554;42.652;23.364;2022-10-23T12:38:14;95189.09;;;20.02;40.37
33191;BME280;19554;42.652;23.364;2022-10-23T12:40:49;95223.06;;;20.21;40.53
33191;BME280;19554;42.652;23.364;2022-10-23T12:43:27;95216.69;;;20.17;40.69
33191;BME280;19554;42.652;23.364;2022-10-23T12:45:55;95220.78;;;20.23;40.24
33191;BME280;19554;42.652;23.364;2022-10-23T12:48:23;95218.31;;;20.18;40.25
33191;BME280;19554;42.652;23.364;2022-10-23T12:50:55;95215.13;;;20.16;40.42
33191;BME280;19554;42.652;23.364;2022-10-23T12:53:21;95220.00;;;20.22;40.55
33191;BME280;19554;42.652;23.364;2022-10-23T12:58:32;95224.63;;;20.22;40.54
33191;BME280;19554;42.652;23.364;2022-10-23T13:01:03;95226.88;;;20.20;40.53
33191;BME280;19554;42.652;23.364;2022-10-23T13:03:30;95231.63;;;20.23;40.54
33191;BME280;19554;42.652;23.364;2022-10-23T13:05:57;95206.25;;;20.06;40.45
33191;BME280;19554;42.652;23.364;2022-10-23T13:08:28;95152.00;;;19.82;40.21
33191;BME280;19554;42.652;23.364;2022-10-23T13:10:55;95203.63;;;20.19;40.08
33191;BME280;19554;42.652;23.364;2022-10-23T13:13:22;95214.69;;;20.26;40.17
33191;BME280;19554;42.652;23.364;2022-10-23T13:15:48;95229.75;;;20.35;40.31
33191;BME280;19554;42.652;23.364;2022-10-23T13:18:14;95163.78;;;19.98;39.96
33191;BME280;19554;42.652;23.364;2022-10-23T13:20:55;95229.88;;;20.39;40.02
33191;BME280;19554;42.652;23.364;2022-10-23T13:23:28;95217.00;;;20.36;39.79
33191;BME280;19554;42.652;23.364;2022-10-23T13:26:04;95215.28;;;20.31;39.73
33191;BME280;19554;42.652;23.364;2022-10-23T13:28:50;95218.78;;;20.32;39.81
33191;BME280;19554;42.652;23.364;2022-10-23T13:34:03;95216.94;;;20.24;40.02
33191;BME280;19554;42.652;23.364;2022-10-23T13:36:33;95208.13;;;20.15;39.96
33191;BME280;19554;42.652;23.364;2022-10-23T13:39:21;95197.03;;;20.07;39.79
33191;BME280;19554;42.652;23.364;2022-10-23T13:41:47;95225.53;;;20.26;39.48
33191;BME280;19554;42.652;23.364;2022-10-23T13:44:15;95231.44;;;20.28;39.40
33191;BME280;19554;42.652;23.364;2022-10-23T13:46:41;95159.00;;;19.83;39.35
33191;BME280;19554;42.652;23.364;2022-10-23T13:49:07;95156.97;;;19.80;39.82
33191;BME280;19554;42.652;23.364;2022-10-23T13:51:53;95231.19;;;20.21;39.74
33191;BME280;19554;42.652;23.364;2022-10-23T13:54:22;95222.13;;;20.17;40.25
33191;BME280;19554;42.652;23.364;2022-10-23T13:56:48;95234.75;;;20.12;39.84
33191;BME280;19554;42.652;23.364;2022-10-23T13:59:14;95230.91;;;20.13;39.77
33191;BME280;19554;42.652;23.364;2022-10-23T14:01:41;95225.59;;;20.05;40.01
33191;BME280;19554;42.652;23.364;2022-10-23T14:04:08;95221.28;;;20.04;40.08
33191;BME280;19554;42.652;23.364;2022-10-23T14:06:34;95230.41;;;19.99;39.89
33191;BME280;19554;42.652;23.364;2022-10-23T14:09:05;95227.44;;;19.92;39.20
33191;BME280;19554;42.652;23.364;2022-10-23T14:11:32;95221.63;;;19.81;39.51
33191;BME280;19554;42.652;23.364;2022-10-23T14:13:57;95210.00;;;19.81;39.42
33191;BME280;19554;42.652;23.364;2022-10-23T14:16:24;95224.03;;;19.83;39.53
33191;BME280;19554;42.652;23.364;2022-10-23T14:18:50;95223.56;;;19.81;39.74
33191;BME280;19554;42.652;23.364;2022-10-23T14:21:20;95216.09;;;19.78;39.51
33191;BME280;19554;42.652;23.364;2022-10-23T14:23:46;95179.31;;;19.47;39.86
33191;BME280;19554;42.652;23.364;2022-10-23T14:26:14;95220.44;;;19.70;40.04
33191;BME280;19554;42.652;23.364;2022-10-23T14:28:40;95150.28;;;19.14;40.45
33191;BME280;19554;42.652;23.364;2022-10-23T14:31:09;95212.88;;;19.55;40.78
33191;BME280;19554;42.652;23.364;2022-10-23T14:33:34;95219.75;;;19.52;41.15
33191;BME280;19554;42.652;23.364;2022-10-23T14:36:00;95226.09;;;19.56;41.04
33191;BME280;19554;42.652;23.364;2022-10-23T14:38:26;95225.63;;;19.54;41.33
33191;BME280;19554;42.652;23.364;2022-10-23T14:40:51;95224.56;;;19.47;41.43
33191;BME280;19554;42.652;23.364;2022-10-23T14:43:16;95171.56;;;19.16;41.84
33191;BME280;19554;42.652;23.364;2022-10-23T14:45:42;95221.19;;;19.50;42.14